| Date | Time | Temp. (oF) | Dew Point (oF) | Rel. Hum. (%) | Press. (in.) | Wind Dir. (deg.) | Wind Speed (mph) | Hourly Rainfall (i n.) |
|
|---|---|---|---|---|---|---|---|---|---|
| 1 | 10/26 | 24:00 | 51 | 40 | 67 | 30.33 | 310 | 2 | 0.00 |
| 2 | 10/25 | 23:00 | 50 | 39 | 68 | 30.34 | 150 | 1 | 0.00 |
| 3 | 10/25 | 22:00 | 48 | 39 | 72 | 30.35 | 290 | 0 | 0.00 |
| 4 | 10/25 | 21:00 | 48 | 39 | 71 | 30.35 | 290 | 0 | 0.00 |
| 5 | 10/25 | 20:00 | 51 | 40 | 66 | 30.36 | 290 | 0 | 0.00 |
| 6 | 10/25 | 19:00 | 53 | 39 | 59 | 30.37 | 290 | 1 | 0.00 |
| 7 | 10/25 | 18:00 | 57 | 39 | 52 | 30.39 | 290 | 1 | 0.00 |
| 8 | 10/25 | 17:00 | 59 | 37 | 45 | 30.40 | 280 | 4 | 0.00 |
| 9 | 10/25 | 16:00 | 59 | 37 | 45 | 30.40 | 270 | 2 | 0.00 |
| 10 | 10/25 | 15:00 | 59 | 36 | 44 | 30.40 | 250 | 1 | 0.00 |
| 11 | 10/25 | 14:00 | 57 | 36 | 46 | 30.40 | 310 | 1 | 0.00 |
| 12 | 10/25 | 13:00 | 55 | 36 | 50 | 30.39 | 280 | 4 | 0.00 |
| 13 | 10/25 | 12:00 | 53 | 36 | 53 | 30.41 | 300 | 4 | 0.00 |
| 14 | 10/25 | 11:00 | 51 | 36 | 58 | 30.41 | 290 | 6 | 0.00 |
| 15 | 10/25 | 10:00 | 47 | 35 | 63 | 30.40 | 310 | 6 | 0.00 |
| 16 | 10/25 | 09:00 | 45 | 35 | 68 | 30.39 | 290 | 6 | 0.00 |
| 17 | 10/25 | 08:00 | 42 | 34 | 75 | 30.38 | 300 | 0 | 0.00 |
| 18 | 10/25 | 07:00 | 43 | 34 | 72 | 30.35 | 300 | 0 | 0.00 |
| 19 | 10/25 | 06:00 | 44 | 34 | 70 | 30.33 | 300 | 2 | 0.00 |
| 20 | 10/25 | 05:00 | 45 | 34 | 66 | 30.30 | 330 | 2 | 0.00 |
| 21 | 10/25 | 04:00 | 45 | 34 | 66 | 30.28 | 310 | 6 | 0.00 |
| 22 | 10/25 | 03:00 | 46 | 35 | 66 | 30.28 | 310 | 0 | 0.00 |
| 23 | 10/25 | 02:00 | 46 | 34 | 64 | 30.27 | 330 | 2 | 0.00 |
| 24 | 10/25 | 01:00 | 47 | 35 | 63 | 30.26 | 290 | 6 | 0.00 |